Tuxtla Gutierrez, Mexico

5:15 PM CST on February 09, 2016 (GMT -0600)
Chiapa de Corzo, Ribera de cupia | | Change Station
CLOSE
Current Station
Personal Weather Station
Location: Amatal, CHIAPAS
Elevation: 1230 ft
Nearby Weather Stations

Elev 1230 ft 16.67 °N, 93.02 °W | Updated 14 seconds ago

Scattered Clouds
Scattered Clouds
75.2 °F
Feels Like 78 °F
N
16.1
Wind Variable Wind from WNW
Gusts 22.4 mph

Today
High -- | Low -- °F
--% Chance of Precip.
Yesterday
High -- | Low -- °F
Precip. -- in
Pressure 30.14 in
Visibility 10.0 miles
Clouds Scattered Clouds 30000 ft
Heat Index 78 °F
Dew Point 50 °F
Humidity 42%
Rainfall 0.00 in
Snow Depth Not available.
6:41 AM 6:12 PM
New Moon, 2% visible
METAR MMTG 092243Z 30020KT 10SM SCT300 22/08 A3014 RMK 8/002 HZY
Pressure 30.14 in
Visibility 10.0 miles
Clouds Scattered Clouds 30000 ft
Heat Index 78 °F
Dew Point 50 °F
Humidity 42%
Rainfall 0.00 in
Snow Depth Not available.
6:41 AM 6:12 PM
New Moon, 2% visible
METAR MMTG 092243Z 30020KT 10SM SCT300 22/08 A3014 RMK 8/002 HZY

10-Day Weather Forecast

No radar image for this location.
×

Almanac

Astronomy

Feb. 09, 2016 Rise Set
Actual Time
Civil Twilight
Nautical Twilight
Astronomical Twilight
Moon
Length of Visible Light
Length of Day
Tomorrow will be .
, % of the Moon is Illuminated

Today's Extremes

Country Highs Country Lows

Community

WunderPhotos

Upload Photos

1,891,728 photos uploaded!

WunderBlog® & News

Nearby

Air Quality

  Air Quality AQ Index Pollutant
Not available.

Snow Depth

Station Depth Elevation

Earthquake Activity

City Distance Mag. Time & Date
Minimum magnitude displayed is 2.5.

Coastal Water Temperatures

Place Temperature

Stations

Nearby Weather Stations

Station Location Temp. Windchill Dew Point Humidity Wind Precip. Elev Updated Type